sensor_id;sensor_type;location;lat;lon;timestamp;temperature;humidity
71436;SHT31;59251;51.326;12.370;2023-05-14T00:02:23;13.78;78.80
71436;SHT31;59251;51.326;12.370;2023-05-14T00:04:48;13.75;78.93
71436;SHT31;59251;51.326;12.370;2023-05-14T00:07:14;13.88;78.53
71436;SHT31;59251;51.326;12.370;2023-05-14T00:09:39;13.82;78.59
71436;SHT31;59251;51.326;12.370;2023-05-14T00:12:05;13.87;78.46
71436;SHT31;59251;51.326;12.370;2023-05-14T00:14:30;13.81;78.66
71436;SHT31;59251;51.326;12.370;2023-05-14T00:16:56;13.91;78.49
71436;SHT31;59251;51.326;12.370;2023-05-14T00:19:22;13.81;78.59
71436;SHT31;59251;51.326;12.370;2023-05-14T00:21:47;13.85;78.73
71436;SHT31;59251;51.326;12.370;2023-05-14T00:24:13;13.75;78.96
71436;SHT31;59251;51.326;12.370;2023-05-14T00:26:38;13.73;78.98
71436;SHT31;59251;51.326;12.370;2023-05-14T00:29:04;13.67;78.90
71436;SHT31;59251;51.326;12.370;2023-05-14T00:31:29;13.66;79.06
71436;SHT31;59251;51.326;12.370;2023-05-14T00:33:54;13.57;79.46
71436;SHT31;59251;51.326;12.370;2023-05-14T00:36:20;13.67;79.20
71436;SHT31;59251;51.326;12.370;2023-05-14T00:38:45;13.53;79.26
71436;SHT31;59251;51.326;12.370;2023-05-14T00:41:11;13.51;79.54
71436;SHT31;59251;51.326;12.370;2023-05-14T00:43:36;13.47;79.62
71436;SHT31;59251;51.326;12.370;2023-05-14T00:46:01;13.44;79.43
71436;SHT31;59251;51.326;12.370;2023-05-14T00:48:27;13.43;79.66
71436;SHT31;59251;51.326;12.370;2023-05-14T00:50:52;13.43;79.61
71436;SHT31;59251;51.326;12.370;2023-05-14T00:53:18;13.46;79.80
71436;SHT31;59251;51.326;12.370;2023-05-14T00:55:44;13.43;79.58
71436;SHT31;59251;51.326;12.370;2023-05-14T00:58:12;13.49;79.44
71436;SHT31;59251;51.326;12.370;2023-05-14T01:00:38;13.54;79.28
71436;SHT31;59251;51.326;12.370;2023-05-14T01:03:04;13.42;79.52
71436;SHT31;59251;51.326;12.370;2023-05-14T01:11:19;13.33;79.75
71436;SHT31;59251;51.326;12.370;2023-05-14T01:16:52;13.30;79.76
71436;SHT31;59251;51.326;12.370;2023-05-14T01:19:40;13.26;79.62
71436;SHT31;59251;51.326;12.370;2023-05-14T01:22:06;13.32;79.42
71436;SHT31;59251;51.326;12.370;2023-05-14T01:24:31;13.35;79.05
71436;SHT31;59251;51.326;12.370;2023-05-14T01:27:05;13.36;79.10
71436;SHT31;59251;51.326;12.370;2023-05-14T01:29:32;13.30;79.02
71436;SHT31;59251;51.326;12.370;2023-05-14T01:31:59;13.33;79.15
71436;SHT31;59251;51.326;12.370;2023-05-14T01:34:27;13.36;79.14
71436;SHT31;59251;51.326;12.370;2023-05-14T01:36:55;13.26;79.09
71436;SHT31;59251;51.326;12.370;2023-05-14T01:39:22;13.23;79.08
71436;SHT31;59251;51.326;12.370;2023-05-14T01:41:50;13.24;78.93
71436;SHT31;59251;51.326;12.370;2023-05-14T01:44:16;13.20;78.95
71436;SHT31;59251;51.326;12.370;2023-05-14T01:46:42;13.22;78.83
71436;SHT31;59251;51.326;12.370;2023-05-14T01:49:07;13.19;78.81
71436;SHT31;59251;51.326;12.370;2023-05-14T01:51:32;13.19;78.82
71436;SHT31;59251;51.326;12.370;2023-05-14T01:53:58;13.15;78.97
71436;SHT31;59251;51.326;12.370;2023-05-14T01:56:23;13.18;78.92
71436;SHT31;59251;51.326;12.370;2023-05-14T01:58:50;13.13;79.00
71436;SHT31;59251;51.326;12.370;2023-05-14T02:01:15;13.15;78.85
71436;SHT31;59251;51.326;12.370;2023-05-14T02:03:40;13.20;78.83
71436;SHT31;59251;51.326;12.370;2023-05-14T02:06:06;13.29;78.57
71436;SHT31;59251;51.326;12.370;2023-05-14T02:08:31;13.29;78.42
71436;SHT31;59251;51.326;12.370;2023-05-14T02:10:57;13.23;78.75
71436;SHT31;59251;51.326;12.370;2023-05-14T02:13:24;13.27;78.55
71436;SHT31;59251;51.326;12.370;2023-05-14T02:15:49;13.30;78.76
71436;SHT31;59251;51.326;12.370;2023-05-14T02:18:15;13.26;78.77
71436;SHT31;59251;51.326;12.370;2023-05-14T02:20:40;13.20;78.87
71436;SHT31;59251;51.326;12.370;2023-05-14T02:23:05;13.20;78.93
71436;SHT31;59251;51.326;12.370;2023-05-14T02:25:31;13.24;78.88
71436;SHT31;59251;51.326;12.370;2023-05-14T02:27:56;13.22;79.03
71436;SHT31;59251;51.326;12.370;2023-05-14T02:30:21;13.16;79.22
71436;SHT31;59251;51.326;12.370;2023-05-14T02:32:47;13.13;79.33
71436;SHT31;59251;51.326;12.370;2023-05-14T02:35:12;13.12;79.39
71436;SHT31;59251;51.326;12.370;2023-05-14T02:37:38;13.13;79.41
71436;SHT31;59251;51.326;12.370;2023-05-14T02:40:03;13.15;79.54
71436;SHT31;59251;51.326;12.370;2023-05-14T02:42:29;13.10;79.64
71436;SHT31;59251;51.326;12.370;2023-05-14T02:44:54;13.10;79.67
71436;SHT31;59251;51.326;12.370;2023-05-14T02:47:20;13.06;79.82
71436;SHT31;59251;51.326;12.370;2023-05-14T02:49:45;13.05;79.89
71436;SHT31;59251;51.326;12.370;2023-05-14T02:52:10;12.99;80.01
71436;SHT31;59251;51.326;12.370;2023-05-14T02:54:36;12.98;80.16
71436;SHT31;59251;51.326;12.370;2023-05-14T02:57:01;12.95;80.38
71436;SHT31;59251;51.326;12.370;2023-05-14T02:59:26;12.96;80.23
71436;SHT31;59251;51.326;12.370;2023-05-14T03:01:52;12.99;80.26
71436;SHT31;59251;51.326;12.370;2023-05-14T03:04:17;12.99;80.35
71436;SHT31;59251;51.326;12.370;2023-05-14T03:06:43;12.99;80.34
71436;SHT31;59251;51.326;12.370;2023-05-14T03:09:08;12.93;80.39
71436;SHT31;59251;51.326;12.370;2023-05-14T03:11:34;12.98;80.27
71436;SHT31;59251;51.326;12.370;2023-05-14T03:13:59;12.89;80.46
71436;SHT31;59251;51.326;12.370;2023-05-14T03:16:25;12.89;80.49
71436;SHT31;59251;51.326;12.370;2023-05-14T03:18:50;12.87;80.63
71436;SHT31;59251;51.326;12.370;2023-05-14T03:21:16;12.81;80.70
71436;SHT31;59251;51.326;12.370;2023-05-14T03:23:41;12.85;80.62
71436;SHT31;59251;51.326;12.370;2023-05-14T03:26:07;12.84;80.81
71436;SHT31;59251;51.326;12.370;2023-05-14T03:28:32;12.80;81.00
71436;SHT31;59251;51.326;12.370;2023-05-14T03:30:57;12.78;81.11
71436;SHT31;59251;51.326;12.370;2023-05-14T03:33:23;12.77;81.07
71436;SHT31;59251;51.326;12.370;2023-05-14T03:35:48;12.75;80.95
71436;SHT31;59251;51.326;12.370;2023-05-14T03:38:14;12.77;81.03
71436;SHT31;59251;51.326;12.370;2023-05-14T03:40:39;12.71;81.05
71436;SHT31;59251;51.326;12.370;2023-05-14T03:43:04;12.77;80.92
71436;SHT31;59251;51.326;12.370;2023-05-14T03:45:31;12.75;81.12
71436;SHT31;59251;51.326;12.370;2023-05-14T03:47:57;12.72;81.23
71436;SHT31;59251;51.326;12.370;2023-05-14T03:50:22;12.74;81.47
71436;SHT31;59251;51.326;12.370;2023-05-14T03:52:50;12.71;81.34
71436;SHT31;59251;51.326;12.370;2023-05-14T03:55:17;12.71;81.35
71436;SHT31;59251;51.326;12.370;2023-05-14T03:57:42;12.69;81.27
71436;SHT31;59251;51.326;12.370;2023-05-14T04:00:08;12.75;80.88
71436;SHT31;59251;51.326;12.370;2023-05-14T04:02:34;12.78;80.77
71436;SHT31;59251;51.326;12.370;2023-05-14T04:04:59;12.84;80.59
71436;SHT31;59251;51.326;12.370;2023-05-14T04:07:24;12.87;80.66
71436;SHT31;59251;51.326;12.370;2023-05-14T04:09:50;12.91;80.50
71436;SHT31;59251;51.326;12.370;2023-05-14T04:12:16;12.93;80.42
71436;SHT31;59251;51.326;12.370;2023-05-14T04:14:41;12.93;80.31
71436;SHT31;59251;51.326;12.370;2023-05-14T04:17:06;13.01;80.20
71436;SHT31;59251;51.326;12.370;2023-05-14T04:19:32;13.01;79.99
71436;SHT31;59251;51.326;12.370;2023-05-14T04:21:57;13.02;79.89
71436;SHT31;59251;51.326;12.370;2023-05-14T04:24:22;13.09;79.88
71436;SHT31;59251;51.326;12.370;2023-05-14T04:26:48;13.12;79.67
71436;SHT31;59251;51.326;12.370;2023-05-14T04:29:13;13.20;79.59
71436;SHT31;59251;51.326;12.370;2023-05-14T04:31:38;13.24;79.39
71436;SHT31;59251;51.326;12.370;2023-05-14T04:34:04;13.23;79.46
71436;SHT31;59251;51.326;12.370;2023-05-14T04:36:29;13.22;79.63
71436;SHT31;59251;51.326;12.370;2023-05-14T04:38:55;13.39;79.21
71436;SHT31;59251;51.326;12.370;2023-05-14T04:41:20;13.33;79.25
71436;SHT31;59251;51.326;12.370;2023-05-14T04:43:48;13.30;79.37
71436;SHT31;59251;51.326;12.370;2023-05-14T04:46:13;13.44;79.10
71436;SHT31;59251;51.326;12.370;2023-05-14T04:48:39;13.39;79.38
71436;SHT31;59251;51.326;12.370;2023-05-14T04:51:05;13.35;79.38
71436;SHT31;59251;51.326;12.370;2023-05-14T04:53:30;13.39;79.47
71436;SHT31;59251;51.326;12.370;2023-05-14T04:55:55;13.39;79.34
71436;SHT31;59251;51.326;12.370;2023-05-14T04:58:21;13.44;79.32
71436;SHT31;59251;51.326;12.370;2023-05-14T05:00:48;13.53;78.90
71436;SHT31;59251;51.326;12.370;2023-05-14T05:03:13;13.51;79.03
71436;SHT31;59251;51.326;12.370;2023-05-14T05:05:39;13.61;78.93
71436;SHT31;59251;51.326;12.370;2023-05-14T05:08:04;13.53;78.86
71436;SHT31;59251;51.326;12.370;2023-05-14T05:10:29;13.75;78.61
71436;SHT31;59251;51.326;12.370;2023-05-14T05:12:55;13.81;78.30
71436;SHT31;59251;51.326;12.370;2023-05-14T05:15:20;13.84;78.18
71436;SHT31;59251;51.326;12.370;2023-05-14T05:17:45;13.71;78.58
71436;SHT31;59251;51.326;12.370;2023-05-14T05:20:11;13.67;78.91
71436;SHT31;59251;51.326;12.370;2023-05-14T05:22:37;13.68;78.73
71436;SHT31;59251;51.326;12.370;2023-05-14T05:25:03;13.74;78.83
71436;SHT31;59251;51.326;12.370;2023-05-14T05:27:33;13.74;78.84
71436;SHT31;59251;51.326;12.370;2023-05-14T05:30:00;13.82;78.57
71436;SHT31;59251;51.326;12.370;2023-05-14T05:32:26;14.22;77.55
71436;SHT31;59251;51.326;12.370;2023-05-14T05:34:51;14.83;76.10
71436;SHT31;59251;51.326;12.370;2023-05-14T05:37:17;16.08;72.18
71436;SHT31;59251;51.326;12.370;2023-05-14T05:39:42;17.41;68.35
71436;SHT31;59251;51.326;12.370;2023-05-14T05:42:07;17.30;67.74
71436;SHT31;59251;51.326;12.370;2023-05-14T05:44:33;17.74;66.72
71436;SHT31;59251;51.326;12.370;2023-05-14T05:46:58;16.68;69.18
71436;SHT31;59251;51.326;12.370;2023-05-14T05:49:24;16.45;70.52
71436;SHT31;59251;51.326;12.370;2023-05-14T05:51:49;16.61;69.70
71436;SHT31;59251;51.326;12.370;2023-05-14T05:54:14;16.87;68.63
71436;SHT31;59251;51.326;12.370;2023-05-14T05:56:40;16.76;68.74
71436;SHT31;59251;51.326;12.370;2023-05-14T05:59:05;16.56;68.87
71436;SHT31;59251;51.326;12.370;2023-05-14T06:01:30;15.59;71.56
71436;SHT31;59251;51.326;12.370;2023-05-14T06:03:56;16.00;70.84
71436;SHT31;59251;51.326;12.370;2023-05-14T06:06:21;15.91;70.33
71436;SHT31;59251;51.326;12.370;2023-05-14T06:08:47;15.90;70.62
71436;SHT31;59251;51.326;12.370;2023-05-14T06:11:12;16.20;69.95
71436;SHT31;59251;51.326;12.370;2023-05-14T06:13:37;15.93;70.37
71436;SHT31;59251;51.326;12.370;2023-05-14T06:16:03;15.86;70.51
71436;SHT31;59251;51.326;12.370;2023-05-14T06:18:28;15.90;70.78
71436;SHT31;59251;51.326;12.370;2023-05-14T06:20:54;16.21;70.08
71436;SHT31;59251;51.326;12.370;2023-05-14T06:23:21;16.06;70.48
71436;SHT31;59251;51.326;12.370;2023-05-14T06:25:47;16.17;70.28
71436;SHT31;59251;51.326;12.370;2023-05-14T06:28:13;16.24;69.93
71436;SHT31;59251;51.326;12.370;2023-05-14T06:30:38;16.29;69.52
71436;SHT31;59251;51.326;12.370;2023-05-14T06:33:04;15.94;70.27
71436;SHT31;59251;51.326;12.370;2023-05-14T06:35:29;16.00;70.15
71436;SHT31;59251;51.326;12.370;2023-05-14T06:37:54;16.10;70.10
71436;SHT31;59251;51.326;12.370;2023-05-14T06:40:20;16.25;69.67
71436;SHT31;59251;51.326;12.370;2023-05-14T06:42:45;16.32;69.10
71436;SHT31;59251;51.326;12.370;2023-05-14T06:45:10;16.52;68.49
71436;SHT31;59251;51.326;12.370;2023-05-14T06:47:36;16.41;68.53
71436;SHT31;59251;51.326;12.370;2023-05-14T06:50:01;16.24;69.05
71436;SHT31;59251;51.326;12.370;2023-05-14T06:52:26;16.32;69.19
71436;SHT31;59251;51.326;12.370;2023-05-14T06:54:52;16.35;68.85
71436;SHT31;59251;51.326;12.370;2023-05-14T06:57:17;16.38;68.45
71436;SHT31;59251;51.326;12.370;2023-05-14T06:59:42;16.27;69.02
71436;SHT31;59251;51.326;12.370;2023-05-14T07:02:08;16.18;69.18
71436;SHT31;59251;51.326;12.370;2023-05-14T07:04:33;16.10;69.52
71436;SHT31;59251;51.326;12.370;2023-05-14T07:06:58;16.35;68.98
71436;SHT31;59251;51.326;12.370;2023-05-14T07:09:24;16.59;68.04
71436;SHT31;59251;51.326;12.370;2023-05-14T07:11:49;16.93;67.02
71436;SHT31;59251;51.326;12.370;2023-05-14T07:14:15;17.03;66.71
71436;SHT31;59251;51.326;12.370;2023-05-14T07:16:40;16.94;66.68
71436;SHT31;59251;51.326;12.370;2023-05-14T07:19:06;17.14;66.24
71436;SHT31;59251;51.326;12.370;2023-05-14T07:21:33;17.12;66.18
71436;SHT31;59251;51.326;12.370;2023-05-14T07:23:58;17.10;66.40
71436;SHT31;59251;51.326;12.370;2023-05-14T07:26:24;17.30;65.71
71436;SHT31;59251;51.326;12.370;2023-05-14T07:28:50;16.86;66.72
71436;SHT31;59251;51.326;12.370;2023-05-14T07:31:15;17.13;66.36
71436;SHT31;59251;51.326;12.370;2023-05-14T07:33:41;17.41;65.86
71436;SHT31;59251;51.326;12.370;2023-05-14T07:36:06;17.21;66.51
71436;SHT31;59251;51.326;12.370;2023-05-14T07:38:32;17.44;66.33
71436;SHT31;59251;51.326;12.370;2023-05-14T07:40:57;17.65;64.28
71436;SHT31;59251;51.326;12.370;2023-05-14T07:43:23;17.69;63.80
71436;SHT31;59251;51.326;12.370;2023-05-14T07:45:48;17.58;64.57
71436;SHT31;59251;51.326;12.370;2023-05-14T07:48:14;17.85;64.24
71436;SHT31;59251;51.326;12.370;2023-05-14T07:50:39;17.90;64.29
71436;SHT31;59251;51.326;12.370;2023-05-14T07:53:05;18.00;63.62
71436;SHT31;59251;51.326;12.370;2023-05-14T07:55:30;17.62;64.55
71436;SHT31;59251;51.326;12.370;2023-05-14T07:57:55;17.86;64.32
71436;SHT31;59251;51.326;12.370;2023-05-14T08:00:21;18.05;63.92
71436;SHT31;59251;51.326;12.370;2023-05-14T08:02:47;17.65;64.27
71436;SHT31;59251;51.326;12.370;2023-05-14T08:05:13;17.41;64.72
71436;SHT31;59251;51.326;12.370;2023-05-14T08:07:38;17.88;64.02
71436;SHT31;59251;51.326;12.370;2023-05-14T08:10:04;17.85;63.54
71436;SHT31;59251;51.326;12.370;2023-05-14T08:12:30;18.08;62.68
71436;SHT31;59251;51.326;12.370;2023-05-14T08:14:56;18.16;62.60
71436;SHT31;59251;51.326;12.370;2023-05-14T08:17:22;18.13;62.39
71436;SHT31;59251;51.326;12.370;2023-05-14T08:19:47;17.95;62.25
71436;SHT31;59251;51.326;12.370;2023-05-14T08:22:13;18.19;62.45
71436;SHT31;59251;51.326;12.370;2023-05-14T08:24:39;18.29;62.32
71436;SHT31;59251;51.326;12.370;2023-05-14T08:27:04;18.10;63.00
71436;SHT31;59251;51.326;12.370;2023-05-14T08:29:30;18.48;62.38
71436;SHT31;59251;51.326;12.370;2023-05-14T08:31:56;18.50;61.97
71436;SHT31;59251;51.326;12.370;2023-05-14T08:34:21;18.46;62.06
71436;SHT31;59251;51.326;12.370;2023-05-14T08:36:46;18.68;61.65
71436;SHT31;59251;51.326;12.370;2023-05-14T08:39:12;18.81;60.79
71436;SHT31;59251;51.326;12.370;2023-05-14T08:41:38;18.84;61.96
71436;SHT31;59251;51.326;12.370;2023-05-14T08:44:12;18.92;61.79
71436;SHT31;59251;51.326;12.370;2023-05-14T08:46:38;19.27;61.43
71436;SHT31;59251;51.326;12.370;2023-05-14T08:49:54;19.34;60.98
71436;SHT31;59251;51.326;12.370;2023-05-14T08:51:52;19.82;60.14
71436;SHT31;59251;51.326;12.370;2023-05-14T08:54:18;19.97;58.60
71436;SHT31;59251;51.326;12.370;2023-05-14T08:56:46;19.74;59.34
71436;SHT31;59251;51.326;12.370;2023-05-14T08:59:12;19.33;60.59
71436;SHT31;59251;51.326;12.370;2023-05-14T09:01:40;19.66;58.53
71436;SHT31;59251;51.326;12.370;2023-05-14T09:04:06;20.07;57.92
71436;SHT31;59251;51.326;12.370;2023-05-14T09:06:35;20.35;58.61
71436;SHT31;59251;51.326;12.370;2023-05-14T09:09:02;20.49;58.94
71436;SHT31;59251;51.326;12.370;2023-05-14T09:11:27;19.90;58.92
71436;SHT31;59251;51.326;12.370;2023-05-14T09:13:53;19.61;60.36
71436;SHT31;59251;51.326;12.370;2023-05-14T09:16:19;19.78;59.91
71436;SHT31;59251;51.326;12.370;2023-05-14T09:18:45;19.88;58.73
71436;SHT31;59251;51.326;12.370;2023-05-14T09:21:13;20.22;57.29
71436;SHT31;59251;51.326;12.370;2023-05-14T09:23:41;19.61;59.37
71436;SHT31;59251;51.326;12.370;2023-05-14T09:26:08;19.40;60.29
71436;SHT31;59251;51.326;12.370;2023-05-14T09:28:33;19.75;58.02
71436;SHT31;59251;51.326;12.370;2023-05-14T09:30:59;19.77;57.80
71436;SHT31;59251;51.326;12.370;2023-05-14T09:33:28;19.92;57.04
71436;SHT31;59251;51.326;12.370;2023-05-14T09:35:57;19.85;57.23
71436;SHT31;59251;51.326;12.370;2023-05-14T09:38:27;20.19;57.41
71436;SHT31;59251;51.326;12.370;2023-05-14T09:40:52;20.72;55.09
71436;SHT31;59251;51.326;12.370;2023-05-14T09:43:17;20.73;54.92
71436;SHT31;59251;51.326;12.370;2023-05-14T09:45:43;20.59;54.79
71436;SHT31;59251;51.326;12.370;2023-05-14T09:48:08;20.49;53.95
71436;SHT31;59251;51.326;12.370;2023-05-14T09:50:41;20.66;54.44
71436;SHT31;59251;51.326;12.370;2023-05-14T09:53:07;21.01;53.81
71436;SHT31;59251;51.326;12.370;2023-05-14T09:55:32;20.75;53.88
71436;SHT31;59251;51.326;12.370;2023-05-14T09:57:57;20.80;54.48
71436;SHT31;59251;51.326;12.370;2023-05-14T10:00:23;20.62;54.55
71436;SHT31;59251;51.326;12.370;2023-05-14T10:02:49;19.98;55.79
71436;SHT31;59251;51.326;12.370;2023-05-14T10:05:17;20.40;55.60
71436;SHT31;59251;51.326;12.370;2023-05-14T10:07:49;20.17;54.89
71436;SHT31;59251;51.326;12.370;2023-05-14T10:10:19;20.11;54.65
71436;SHT31;59251;51.326;12.370;2023-05-14T10:12:52;20.57;53.85
71436;SHT31;59251;51.326;12.370;2023-05-14T10:15:36;19.95;55.27
71436;SHT31;59251;51.326;12.370;2023-05-14T10:18:09;20.21;55.26
71436;SHT31;59251;51.326;12.370;2023-05-14T10:20:36;20.36;55.34
71436;SHT31;59251;51.326;12.370;2023-05-14T10:23:02;19.75;56.24
71436;SHT31;59251;51.326;12.370;2023-05-14T10:25:28;20.09;56.32
71436;SHT31;59251;51.326;12.370;2023-05-14T10:27:54;20.35;55.37
71436;SHT31;59251;51.326;12.370;2023-05-14T10:30:22;20.49;55.18
71436;SHT31;59251;51.326;12.370;2023-05-14T10:32:48;20.52;54.49
71436;SHT31;59251;51.326;12.370;2023-05-14T10:35:18;20.12;55.36
71436;SHT31;59251;51.326;12.370;2023-05-14T10:37:44;20.14;54.51
71436;SHT31;59251;51.326;12.370;2023-05-14T10:40:11;20.15;54.51
71436;SHT31;59251;51.326;12.370;2023-05-14T10:42:38;20.29;54.50
71436;SHT31;59251;51.326;12.370;2023-05-14T10:45:09;20.38;53.72
71436;SHT31;59251;51.326;12.370;2023-05-14T10:47:37;20.45;53.03
71436;SHT31;59251;51.326;12.370;2023-05-14T10:50:05;20.77;52.17
71436;SHT31;59251;51.326;12.370;2023-05-14T10:52:31;21.12;51.15
71436;SHT31;59251;51.326;12.370;2023-05-14T10:54:58;20.88;51.68
71436;SHT31;59251;51.326;12.370;2023-05-14T10:57:26;20.67;52.85
71436;SHT31;59251;51.326;12.370;2023-05-14T10:59:57;20.62;52.71
71436;SHT31;59251;51.326;12.370;2023-05-14T11:02:25;20.90;52.33
71436;SHT31;59251;51.326;12.370;2023-05-14T11:04:52;20.56;53.18
71436;SHT31;59251;51.326;12.370;2023-05-14T11:07:31;20.36;53.95
71436;SHT31;59251;51.326;12.370;2023-05-14T11:10:03;20.14;53.24
71436;SHT31;59251;51.326;12.370;2023-05-14T11:12:29;20.62;53.14
71436;SHT31;59251;51.326;12.370;2023-05-14T11:14:58;20.88;52.16
71436;SHT31;59251;51.326;12.370;2023-05-14T11:17:28;20.90;51.98
71436;SHT31;59251;51.326;12.370;2023-05-14T11:19:54;21.41;51.58
71436;SHT31;59251;51.326;12.370;2023-05-14T11:22:20;20.60;52.34
71436;SHT31;59251;51.326;12.370;2023-05-14T11:24:47;21.01;52.47
71436;SHT31;59251;51.326;12.370;2023-05-14T11:27:12;20.75;53.18
71436;SHT31;59251;51.326;12.370;2023-05-14T11:29:37;20.93;53.06
71436;SHT31;59251;51.326;12.370;2023-05-14T11:32:06;21.15;53.01
71436;SHT31;59251;51.326;12.370;2023-05-14T11:34:32;20.88;55.01
71436;SHT31;59251;51.326;12.370;2023-05-14T11:37:02;20.46;57.72
71436;SHT31;59251;51.326;12.370;2023-05-14T11:39:27;20.28;58.27
71436;SHT31;59251;51.326;12.370;2023-05-14T11:41:53;20.49;57.10
71436;SHT31;59251;51.326;12.370;2023-05-14T11:44:18;20.42;57.02
71436;SHT31;59251;51.326;12.370;2023-05-14T11:46:56;20.07;57.91
71436;SHT31;59251;51.326;12.370;2023-05-14T11:49:22;20.40;57.63
71436;SHT31;59251;51.326;12.370;2023-05-14T11:51:48;20.12;58.44
71436;SHT31;59251;51.326;12.370;2023-05-14T11:54:13;19.73;59.51
71436;SHT31;59251;51.326;12.370;2023-05-14T11:56:39;20.12;59.06
71436;SHT31;59251;51.326;12.370;2023-05-14T11:59:05;20.12;58.13
71436;SHT31;59251;51.326;12.370;2023-05-14T12:01:35;20.04;58.06
71436;SHT31;59251;51.326;12.370;2023-05-14T12:04:03;20.21;58.02
71436;SHT31;59251;51.326;12.370;2023-05-14T12:06:31;20.69;55.12
71436;SHT31;59251;51.326;12.370;2023-05-14T12:08:57;20.72;53.88
71436;SHT31;59251;51.326;12.370;2023-05-14T12:11:22;20.60;54.34
71436;SHT31;59251;51.326;12.370;2023-05-14T12:13:47;20.65;53.74
71436;SHT31;59251;51.326;12.370;2023-05-14T12:16:13;20.72;53.64
71436;SHT31;59251;51.326;12.370;2023-05-14T12:18:38;20.30;54.71
71436;SHT31;59251;51.326;12.370;2023-05-14T12:21:04;20.43;54.38
71436;SHT31;59251;51.326;12.370;2023-05-14T12:23:32;20.40;54.16
71436;SHT31;59251;51.326;12.370;2023-05-14T12:26:02;20.73;53.70
71436;SHT31;59251;51.326;12.370;2023-05-14T12:28:28;20.90;53.59
71436;SHT31;59251;51.326;12.370;2023-05-14T12:30:57;20.86;53.82
71436;SHT31;59251;51.326;12.370;2023-05-14T12:33:23;20.59;53.85
71436;SHT31;59251;51.326;12.370;2023-05-14T12:35:51;20.86;53.69
71436;SHT31;59251;51.326;12.370;2023-05-14T12:38:18;20.45;54.92
71436;SHT31;59251;51.326;12.370;2023-05-14T12:40:43;20.73;54.59
71436;SHT31;59251;51.326;12.370;2023-05-14T12:43:09;20.97;54.24
71436;SHT31;59251;51.326;12.370;2023-05-14T12:45:34;20.83;54.49
71436;SHT31;59251;51.326;12.370;2023-05-14T12:47:59;21.37;53.49
71436;SHT31;59251;51.326;12.370;2023-05-14T12:50:25;21.69;52.92
71436;SHT31;59251;51.326;12.370;2023-05-14T12:52:50;20.77;54.93
71436;SHT31;59251;51.326;12.370;2023-05-14T12:55:15;20.87;55.27
71436;SHT31;59251;51.326;12.370;2023-05-14T12:57:41;20.15;56.36
71436;SHT31;59251;51.326;12.370;2023-05-14T13:00:07;20.56;55.71
71436;SHT31;59251;51.326;12.370;2023-05-14T13:02:36;20.70;55.76
71436;SHT31;59251;51.326;12.370;2023-05-14T13:05:01;20.95;55.36
71436;SHT31;59251;51.326;12.370;2023-05-14T13:07:28;21.28;54.63
71436;SHT31;59251;51.326;12.370;2023-05-14T13:09:56;21.07;55.20
71436;SHT31;59251;51.326;12.370;2023-05-14T13:12:22;21.79;53.87
71436;SHT31;59251;51.326;12.370;2023-05-14T13:14:48;21.90;53.86
71436;SHT31;59251;51.326;12.370;2023-05-14T13:17:13;21.83;54.27
71436;SHT31;59251;51.326;12.370;2023-05-14T13:19:39;20.80;54.41
71436;SHT31;59251;51.326;12.370;2023-05-14T13:22:04;20.18;53.61
71436;SHT31;59251;51.326;12.370;2023-05-14T13:24:29;19.94;54.12
71436;SHT31;59251;51.326;12.370;2023-05-14T13:26:55;19.87;54.69
71436;SHT31;59251;51.326;12.370;2023-05-14T13:29:20;19.39;55.58
71436;SHT31;59251;51.326;12.370;2023-05-14T13:31:46;19.47;54.29
71436;SHT31;59251;51.326;12.370;2023-05-14T13:34:11;19.92;53.63
71436;SHT31;59251;51.326;12.370;2023-05-14T13:36:37;20.38;52.44
71436;SHT31;59251;51.326;12.370;2023-05-14T13:39:06;20.02;53.98
71436;SHT31;59251;51.326;12.370;2023-05-14T13:41:32;19.71;54.98
71436;SHT31;59251;51.326;12.370;2023-05-14T13:44:02;19.77;55.49
71436;SHT31;59251;51.326;12.370;2023-05-14T13:46:27;19.60;55.99
71436;SHT31;59251;51.326;12.370;2023-05-14T13:48:53;19.78;55.47
71436;SHT31;59251;51.326;12.370;2023-05-14T13:51:18;20.12;54.79
71436;SHT31;59251;51.326;12.370;2023-05-14T13:53:43;20.11;54.81
71436;SHT31;59251;51.326;12.370;2023-05-14T13:56:09;20.72;54.06
71436;SHT31;59251;51.326;12.370;2023-05-14T13:58:34;20.62;53.85
71436;SHT31;59251;51.326;12.370;2023-05-14T14:00:59;20.12;55.34
71436;SHT31;59251;51.326;12.370;2023-05-14T14:03:25;20.57;55.35
71436;SHT31;59251;51.326;12.370;2023-05-14T14:05:50;20.80;53.99
71436;SHT31;59251;51.326;12.370;2023-05-14T14:08:17;20.67;54.50
71436;SHT31;59251;51.326;12.370;2023-05-14T14:10:42;21.14;54.04
71436;SHT31;59251;51.326;12.370;2023-05-14T14:13:08;21.90;52.63
71436;SHT31;59251;51.326;12.370;2023-05-14T14:15:34;22.25;51.55
71436;SHT31;59251;51.326;12.370;2023-05-14T14:18:00;21.73;53.08
71436;SHT31;59251;51.326;12.370;2023-05-14T14:20:26;21.96;52.56
71436;SHT31;59251;51.326;12.370;2023-05-14T14:22:51;20.73;54.55
71436;SHT31;59251;51.326;12.370;2023-05-14T14:25:16;20.52;55.32
71436;SHT31;59251;51.326;12.370;2023-05-14T14:27:42;21.42;54.01
71436;SHT31;59251;51.326;12.370;2023-05-14T14:30:08;22.20;51.92
71436;SHT31;59251;51.326;12.370;2023-05-14T14:32:45;22.41;49.73
71436;SHT31;59251;51.326;12.370;2023-05-14T14:35:12;23.64;46.89
71436;SHT31;59251;51.326;12.370;2023-05-14T14:37:38;22.99;47.39
71436;SHT31;59251;51.326;12.370;2023-05-14T14:40:03;22.27;49.24
71436;SHT31;59251;51.326;12.370;2023-05-14T14:42:32;22.00;49.62
71436;SHT31;59251;51.326;12.370;2023-05-14T14:44:57;21.39;51.83
71436;SHT31;59251;51.326;12.370;2023-05-14T14:47:23;21.61;51.55
71436;SHT31;59251;51.326;12.370;2023-05-14T14:49:48;21.31;52.36
71436;SHT31;59251;51.326;12.370;2023-05-14T14:52:13;21.41;52.25
71436;SHT31;59251;51.326;12.370;2023-05-14T14:54:39;21.55;52.18
71436;SHT31;59251;51.326;12.370;2023-05-14T14:57:04;20.28;54.70
71436;SHT31;59251;51.326;12.370;2023-05-14T14:59:30;20.57;54.86
71436;SHT31;59251;51.326;12.370;2023-05-14T15:01:55;21.00;54.19
71436;SHT31;59251;51.326;12.370;2023-05-14T15:04:20;20.42;55.30
71436;SHT31;59251;51.326;12.370;2023-05-14T15:06:46;20.21;56.66
71436;SHT31;59251;51.326;12.370;2023-05-14T15:09:11;20.02;57.10
71436;SHT31;59251;51.326;12.370;2023-05-14T15:11:36;20.57;56.26
71436;SHT31;59251;51.326;12.370;2023-05-14T15:14:02;20.15;57.02
71436;SHT31;59251;51.326;12.370;2023-05-14T15:16:27;20.70;56.73
71436;SHT31;59251;51.326;12.370;2023-05-14T15:18:52;20.77;55.45